sensor_id;sensor_type;location;lat;lon;timestamp;temperature;humidity
22450;DHT22;11392;57.390;-2.468;2022-08-18T00:02:15;11.00;99.90
22450;DHT22;11392;57.390;-2.468;2022-08-18T00:04:44;10.90;99.90
22450;DHT22;11392;57.390;-2.468;2022-08-18T00:07:27;10.90;99.90
22450;DHT22;11392;57.390;-2.468;2022-08-18T00:09:54;10.90;99.90
22450;DHT22;11392;57.390;-2.468;2022-08-18T00:12:25;11.00;99.90
22450;DHT22;11392;57.390;-2.468;2022-08-18T00:14:52;11.00;99.90
22450;DHT22;11392;57.390;-2.468;2022-08-18T00:17:20;11.00;99.90
22450;DHT22;11392;57.390;-2.468;2022-08-18T00:19:47;11.00;99.90
22450;DHT22;11392;57.390;-2.468;2022-08-18T00:22:17;11.00;99.90
22450;DHT22;11392;57.390;-2.468;2022-08-18T00:24:47;10.90;99.90
22450;DHT22;11392;57.390;-2.468;2022-08-18T00:27:27;10.90;99.90
22450;DHT22;11392;57.390;-2.468;2022-08-18T00:29:57;10.90;99.90
22450;DHT22;11392;57.390;-2.468;2022-08-18T00:32:30;10.80;99.90
22450;DHT22;11392;57.390;-2.468;2022-08-18T00:35:27;10.70;99.90
22450;DHT22;11392;57.390;-2.468;2022-08-18T00:37:56;10.60;99.90
22450;DHT22;11392;57.390;-2.468;2022-08-18T00:40:28;10.60;99.90
22450;DHT22;11392;57.390;-2.468;2022-08-18T00:43:06;10.70;99.90
22450;DHT22;11392;57.390;-2.468;2022-08-18T00:45:36;10.80;99.90
22450;DHT22;11392;57.390;-2.468;2022-08-18T00:48:07;10.90;99.90
22450;DHT22;11392;57.390;-2.468;2022-08-18T00:50:59;10.90;99.90
22450;DHT22;11392;57.390;-2.468;2022-08-18T00:54:16;10.80;99.90
22450;DHT22;11392;57.390;-2.468;2022-08-18T00:56:33;10.70;99.90
22450;DHT22;11392;57.390;-2.468;2022-08-18T00:59:28;10.60;99.90
22450;DHT22;11392;57.390;-2.468;2022-08-18T01:01:59;10.60;99.90
22450;DHT22;11392;57.390;-2.468;2022-08-18T01:07:15;10.50;99.90
22450;DHT22;11392;57.390;-2.468;2022-08-18T01:09:49;10.50;99.90
22450;DHT22;11392;57.390;-2.468;2022-08-18T01:12:18;10.50;99.90
22450;DHT22;11392;57.390;-2.468;2022-08-18T01:15:05;10.50;99.90
22450;DHT22;11392;57.390;-2.468;2022-08-18T01:17:54;10.60;99.90
22450;DHT22;11392;57.390;-2.468;2022-08-18T01:24:08;10.60;99.90
22450;DHT22;11392;57.390;-2.468;2022-08-18T01:26:40;10.70;99.90
22450;DHT22;11392;57.390;-2.468;2022-08-18T01:29:17;10.70;99.90
22450;DHT22;11392;57.390;-2.468;2022-08-18T01:31:54;10.70;99.90
22450;DHT22;11392;57.390;-2.468;2022-08-18T01:34:24;10.60;99.90
22450;DHT22;11392;57.390;-2.468;2022-08-18T01:36:53;10.60;99.90
22450;DHT22;11392;57.390;-2.468;2022-08-18T01:39:21;10.50;99.90
22450;DHT22;11392;57.390;-2.468;2022-08-18T01:42:09;10.60;99.90
22450;DHT22;11392;57.390;-2.468;2022-08-18T01:44:37;10.60;99.90
22450;DHT22;11392;57.390;-2.468;2022-08-18T01:47:08;10.60;99.90
22450;DHT22;11392;57.390;-2.468;2022-08-18T01:49:37;10.60;99.90
22450;DHT22;11392;57.390;-2.468;2022-08-18T01:52:05;10.60;99.90
22450;DHT22;11392;57.390;-2.468;2022-08-18T01:54:33;10.60;99.90
22450;DHT22;11392;57.390;-2.468;2022-08-18T01:57:00;10.60;99.90
22450;DHT22;11392;57.390;-2.468;2022-08-18T01:59:27;10.60;99.90
22450;DHT22;11392;57.390;-2.468;2022-08-18T02:01:54;10.60;99.90
22450;DHT22;11392;57.390;-2.468;2022-08-18T02:04:27;10.60;99.90
22450;DHT22;11392;57.390;-2.468;2022-08-18T02:07:03;10.50;99.90
22450;DHT22;11392;57.390;-2.468;2022-08-18T02:09:30;10.50;99.90
22450;DHT22;11392;57.390;-2.468;2022-08-18T02:11:57;10.40;99.90
22450;DHT22;11392;57.390;-2.468;2022-08-18T02:14:24;10.40;99.90
22450;DHT22;11392;57.390;-2.468;2022-08-18T02:16:56;10.30;99.90
22450;DHT22;11392;57.390;-2.468;2022-08-18T02:19:32;10.20;99.90
22450;DHT22;11392;57.390;-2.468;2022-08-18T02:21:59;10.20;99.90
22450;DHT22;11392;57.390;-2.468;2022-08-18T02:24:26;10.20;99.90
22450;DHT22;11392;57.390;-2.468;2022-08-18T02:26:53;10.10;99.90
22450;DHT22;11392;57.390;-2.468;2022-08-18T02:29:21;10.10;99.90
22450;DHT22;11392;57.390;-2.468;2022-08-18T02:31:48;10.10;99.90
22450;DHT22;11392;57.390;-2.468;2022-08-18T02:34:16;10.10;99.90
22450;DHT22;11392;57.390;-2.468;2022-08-18T02:36:43;10.10;99.90
22450;DHT22;11392;57.390;-2.468;2022-08-18T02:39:10;10.10;99.90
22450;DHT22;11392;57.390;-2.468;2022-08-18T02:41:37;10.10;99.90
22450;DHT22;11392;57.390;-2.468;2022-08-18T02:44:06;10.20;99.90
22450;DHT22;11392;57.390;-2.468;2022-08-18T02:46:34;10.20;99.90
22450;DHT22;11392;57.390;-2.468;2022-08-18T02:49:02;10.20;99.90
22450;DHT22;11392;57.390;-2.468;2022-08-18T02:51:30;10.20;99.90
22450;DHT22;11392;57.390;-2.468;2022-08-18T02:53:57;10.10;99.90
22450;DHT22;11392;57.390;-2.468;2022-08-18T02:56:29;10.10;99.90
22450;DHT22;11392;57.390;-2.468;2022-08-18T02:59:11;10.10;99.90
22450;DHT22;11392;57.390;-2.468;2022-08-18T03:01:41;10.10;99.90
22450;DHT22;11392;57.390;-2.468;2022-08-18T03:04:11;10.10;99.90
22450;DHT22;11392;57.390;-2.468;2022-08-18T03:06:38;10.10;99.90
22450;DHT22;11392;57.390;-2.468;2022-08-18T03:09:07;10.00;99.90
22450;DHT22;11392;57.390;-2.468;2022-08-18T03:11:36;10.00;99.90
22450;DHT22;11392;57.390;-2.468;2022-08-18T03:14:03;9.90;99.90
22450;DHT22;11392;57.390;-2.468;2022-08-18T03:16:39;9.80;99.90
22450;DHT22;11392;57.390;-2.468;2022-08-18T03:19:25;9.60;99.90
22450;DHT22;11392;57.390;-2.468;2022-08-18T03:21:55;9.60;99.90
22450;DHT22;11392;57.390;-2.468;2022-08-18T03:24:28;9.50;99.90
22450;DHT22;11392;57.390;-2.468;2022-08-18T03:26:58;9.50;99.90
22450;DHT22;11392;57.390;-2.468;2022-08-18T03:29:26;9.50;99.90
22450;DHT22;11392;57.390;-2.468;2022-08-18T03:32:03;9.50;99.90
22450;DHT22;11392;57.390;-2.468;2022-08-18T03:34:31;9.40;99.90
22450;DHT22;11392;57.390;-2.468;2022-08-18T03:36:58;9.50;99.90
22450;DHT22;11392;57.390;-2.468;2022-08-18T03:39:26;9.60;99.90
22450;DHT22;11392;57.390;-2.468;2022-08-18T03:41:54;9.60;99.90
22450;DHT22;11392;57.390;-2.468;2022-08-18T03:44:26;9.50;99.90
22450;DHT22;11392;57.390;-2.468;2022-08-18T03:46:53;9.60;99.90
22450;DHT22;11392;57.390;-2.468;2022-08-18T03:49:20;9.70;99.90
22450;DHT22;11392;57.390;-2.468;2022-08-18T03:51:48;9.80;99.90
22450;DHT22;11392;57.390;-2.468;2022-08-18T03:54:16;9.90;99.90
22450;DHT22;11392;57.390;-2.468;2022-08-18T03:56:45;9.90;99.90
22450;DHT22;11392;57.390;-2.468;2022-08-18T03:59:21;9.90;99.90
22450;DHT22;11392;57.390;-2.468;2022-08-18T04:01:50;10.00;99.90
22450;DHT22;11392;57.390;-2.468;2022-08-18T04:04:21;10.00;99.90
22450;DHT22;11392;57.390;-2.468;2022-08-18T04:06:54;10.00;99.90
22450;DHT22;11392;57.390;-2.468;2022-08-18T04:09:27;10.10;99.90
22450;DHT22;11392;57.390;-2.468;2022-08-18T04:11:55;10.10;99.90
22450;DHT22;11392;57.390;-2.468;2022-08-18T04:14:24;10.10;99.90
22450;DHT22;11392;57.390;-2.468;2022-08-18T04:16:56;10.10;99.90
22450;DHT22;11392;57.390;-2.468;2022-08-18T04:19:24;10.10;99.90
22450;DHT22;11392;57.390;-2.468;2022-08-18T04:21:55;10.00;99.90
22450;DHT22;11392;57.390;-2.468;2022-08-18T04:24:22;10.10;99.90
22450;DHT22;11392;57.390;-2.468;2022-08-18T04:26:50;10.30;99.90
22450;DHT22;11392;57.390;-2.468;2022-08-18T04:29:19;10.50;99.90
22450;DHT22;11392;57.390;-2.468;2022-08-18T04:31:50;10.60;99.90
22450;DHT22;11392;57.390;-2.468;2022-08-18T04:34:19;10.70;99.90
22450;DHT22;11392;57.390;-2.468;2022-08-18T04:36:46;10.80;99.90
22450;DHT22;11392;57.390;-2.468;2022-08-18T04:39:13;10.90;99.90
22450;DHT22;11392;57.390;-2.468;2022-08-18T04:41:42;11.00;99.90
22450;DHT22;11392;57.390;-2.468;2022-08-18T04:44:11;11.00;99.90
22450;DHT22;11392;57.390;-2.468;2022-08-18T04:46:44;11.00;99.90
22450;DHT22;11392;57.390;-2.468;2022-08-18T04:49:12;11.10;99.90
22450;DHT22;11392;57.390;-2.468;2022-08-18T04:51:42;11.10;99.90
22450;DHT22;11392;57.390;-2.468;2022-08-18T04:54:31;11.00;99.90
22450;DHT22;11392;57.390;-2.468;2022-08-18T04:57:18;11.00;99.90
22450;DHT22;11392;57.390;-2.468;2022-08-18T04:59:47;11.10;99.90
22450;DHT22;11392;57.390;-2.468;2022-08-18T05:02:15;11.10;99.90
22450;DHT22;11392;57.390;-2.468;2022-08-18T05:04:43;11.10;99.90
22450;DHT22;11392;57.390;-2.468;2022-08-18T05:07:16;11.10;99.90
22450;DHT22;11392;57.390;-2.468;2022-08-18T05:09:44;11.10;99.90
22450;DHT22;11392;57.390;-2.468;2022-08-18T05:12:13;11.10;99.90
22450;DHT22;11392;57.390;-2.468;2022-08-18T05:14:42;11.10;99.90
22450;DHT22;11392;57.390;-2.468;2022-08-18T05:17:14;11.20;99.90
22450;DHT22;11392;57.390;-2.468;2022-08-18T05:19:42;11.30;99.90
22450;DHT22;11392;57.390;-2.468;2022-08-18T05:22:14;11.30;99.90
22450;DHT22;11392;57.390;-2.468;2022-08-18T05:24:44;11.40;99.90
22450;DHT22;11392;57.390;-2.468;2022-08-18T05:27:12;11.50;99.90
22450;DHT22;11392;57.390;-2.468;2022-08-18T05:29:39;11.50;99.90
22450;DHT22;11392;57.390;-2.468;2022-08-18T05:32:12;11.50;99.90
22450;DHT22;11392;57.390;-2.468;2022-08-18T05:35:06;11.60;99.90
22450;DHT22;11392;57.390;-2.468;2022-08-18T05:37:45;11.60;99.90
22450;DHT22;11392;57.390;-2.468;2022-08-18T05:40:22;11.60;99.90
22450;DHT22;11392;57.390;-2.468;2022-08-18T05:42:50;11.60;99.90
22450;DHT22;11392;57.390;-2.468;2022-08-18T05:45:18;11.60;99.90
22450;DHT22;11392;57.390;-2.468;2022-08-18T05:47:46;11.60;99.90
22450;DHT22;11392;57.390;-2.468;2022-08-18T05:50:16;11.70;99.90
22450;DHT22;11392;57.390;-2.468;2022-08-18T05:53:08;11.70;99.90
22450;DHT22;11392;57.390;-2.468;2022-08-18T05:55:53;11.70;99.90
22450;DHT22;11392;57.390;-2.468;2022-08-18T05:58:43;11.70;99.90
22450;DHT22;11392;57.390;-2.468;2022-08-18T06:01:24;11.80;99.90
22450;DHT22;11392;57.390;-2.468;2022-08-18T06:04:00;11.90;99.90
22450;DHT22;11392;57.390;-2.468;2022-08-18T06:06:29;12.00;99.90
22450;DHT22;11392;57.390;-2.468;2022-08-18T06:12:18;12.00;99.90
22450;DHT22;11392;57.390;-2.468;2022-08-18T06:14:46;12.10;99.90
22450;DHT22;11392;57.390;-2.468;2022-08-18T06:17:25;12.20;99.90
22450;DHT22;11392;57.390;-2.468;2022-08-18T06:20:02;12.30;99.90
22450;DHT22;11392;57.390;-2.468;2022-08-18T06:22:50;12.30;99.90
22450;DHT22;11392;57.390;-2.468;2022-08-18T06:28:13;12.40;99.90
22450;DHT22;11392;57.390;-2.468;2022-08-18T06:38:54;12.80;99.90
22450;DHT22;11392;57.390;-2.468;2022-08-18T06:41:37;12.80;99.90
22450;DHT22;11392;57.390;-2.468;2022-08-18T06:49:36;12.90;99.90
22450;DHT22;11392;57.390;-2.468;2022-08-18T06:52:33;12.90;99.90
22450;DHT22;11392;57.390;-2.468;2022-08-18T06:55:10;13.00;99.90
22450;DHT22;11392;57.390;-2.468;2022-08-18T06:58:00;13.00;99.90
22450;DHT22;11392;57.390;-2.468;2022-08-18T07:00:29;13.00;99.90
22450;DHT22;11392;57.390;-2.468;2022-08-18T07:03:13;13.00;99.90
22450;DHT22;11392;57.390;-2.468;2022-08-18T07:06:02;13.00;99.90
22450;DHT22;11392;57.390;-2.468;2022-08-18T07:11:17;12.90;99.90
22450;DHT22;11392;57.390;-2.468;2022-08-18T07:13:48;12.90;99.90
22450;DHT22;11392;57.390;-2.468;2022-08-18T07:16:35;13.00;99.90
22450;DHT22;11392;57.390;-2.468;2022-08-18T07:19:28;12.90;99.90
22450;DHT22;11392;57.390;-2.468;2022-08-18T07:22:08;13.00;99.90
22450;DHT22;11392;57.390;-2.468;2022-08-18T07:24:45;13.00;99.90
22450;DHT22;11392;57.390;-2.468;2022-08-18T07:27:18;13.10;99.90
22450;DHT22;11392;57.390;-2.468;2022-08-18T07:30:02;13.10;99.90
22450;DHT22;11392;57.390;-2.468;2022-08-18T07:32:43;13.10;99.90
22450;DHT22;11392;57.390;-2.468;2022-08-18T07:35:13;13.20;99.90
22450;DHT22;11392;57.390;-2.468;2022-08-18T07:38:08;13.20;99.90
22450;DHT22;11392;57.390;-2.468;2022-08-18T07:41:08;13.20;99.90
22450;DHT22;11392;57.390;-2.468;2022-08-18T07:43:58;13.20;99.90
22450;DHT22;11392;57.390;-2.468;2022-08-18T07:46:46;13.10;99.90
22450;DHT22;11392;57.390;-2.468;2022-08-18T07:49:18;13.10;99.90
22450;DHT22;11392;57.390;-2.468;2022-08-18T07:51:58;13.00;99.90
22450;DHT22;11392;57.390;-2.468;2022-08-18T07:54:44;13.00;99.90
22450;DHT22;11392;57.390;-2.468;2022-08-18T08:00:33;13.00;99.90
22450;DHT22;11392;57.390;-2.468;2022-08-18T08:06:34;13.00;99.90
22450;DHT22;11392;57.390;-2.468;2022-08-18T08:12:46;13.00;99.90
22450;DHT22;11392;57.390;-2.468;2022-08-18T08:20:51;13.10;99.90
22450;DHT22;11392;57.390;-2.468;2022-08-18T08:31:27;13.20;99.90
22450;DHT22;11392;57.390;-2.468;2022-08-18T08:36:37;13.20;99.90
22450;DHT22;11392;57.390;-2.468;2022-08-18T08:39:25;13.20;99.90
22450;DHT22;11392;57.390;-2.468;2022-08-18T08:42:05;13.30;99.90
22450;DHT22;11392;57.390;-2.468;2022-08-18T08:44:57;13.30;99.90
22450;DHT22;11392;57.390;-2.468;2022-08-18T08:50:08;13.40;99.90
22450;DHT22;11392;57.390;-2.468;2022-08-18T08:55:39;13.40;99.90
22450;DHT22;11392;57.390;-2.468;2022-08-18T09:00:35;13.30;99.90
22450;DHT22;11392;57.390;-2.468;2022-08-18T09:06:41;13.30;99.90
22450;DHT22;11392;57.390;-2.468;2022-08-18T09:24:59;13.50;99.90
22450;DHT22;11392;57.390;-2.468;2022-08-18T09:27:42;13.50;99.90
22450;DHT22;11392;57.390;-2.468;2022-08-18T09:39:19;13.50;99.90
22450;DHT22;11392;57.390;-2.468;2022-08-18T09:42:17;13.50;99.90
22450;DHT22;11392;57.390;-2.468;2022-08-18T09:44:58;13.60;99.90
22450;DHT22;11392;57.390;-2.468;2022-08-18T09:55:58;13.70;99.90
22450;DHT22;11392;57.390;-2.468;2022-08-18T09:58:48;13.80;99.90
22450;DHT22;11392;57.390;-2.468;2022-08-18T10:06:48;13.90;99.90
22450;DHT22;11392;57.390;-2.468;2022-08-18T10:15:12;14.00;99.90
22450;DHT22;11392;57.390;-2.468;2022-08-18T10:18:13;14.10;99.90
22450;DHT22;11392;57.390;-2.468;2022-08-18T10:21:01;14.10;99.90
22450;DHT22;11392;57.390;-2.468;2022-08-18T10:23:43;14.20;99.90
22450;DHT22;11392;57.390;-2.468;2022-08-18T10:34:50;14.20;99.90
22450;DHT22;11392;57.390;-2.468;2022-08-18T10:40:04;14.40;99.90
22450;DHT22;11392;57.390;-2.468;2022-08-18T10:42:49;14.40;99.90
22450;DHT22;11392;57.390;-2.468;2022-08-18T10:45:24;14.50;99.90
22450;DHT22;11392;57.390;-2.468;2022-08-18T10:48:26;14.50;99.90
22450;DHT22;11392;57.390;-2.468;2022-08-18T10:59:29;15.20;99.90
22450;DHT22;11392;57.390;-2.468;2022-08-18T11:05:28;15.80;99.90
22450;DHT22;11392;57.390;-2.468;2022-08-18T11:08:18;16.00;99.90
22450;DHT22;11392;57.390;-2.468;2022-08-18T11:10:47;16.20;99.90
22450;DHT22;11392;57.390;-2.468;2022-08-18T11:17:19;16.50;99.90
22450;DHT22;11392;57.390;-2.468;2022-08-18T11:19:20;16.70;99.90
22450;DHT22;11392;57.390;-2.468;2022-08-18T11:21:50;17.00;99.90
22450;DHT22;11392;57.390;-2.468;2022-08-18T11:24:19;17.40;99.90
22450;DHT22;11392;57.390;-2.468;2022-08-18T11:27:01;18.20;99.90
22450;DHT22;11392;57.390;-2.468;2022-08-18T11:32:03;19.40;99.90
22450;DHT22;11392;57.390;-2.468;2022-08-18T11:39:57;20.70;99.90
22450;DHT22;11392;57.390;-2.468;2022-08-18T11:42:31;20.80;99.90
22450;DHT22;11392;57.390;-2.468;2022-08-18T11:45:17;21.00;99.90
22450;DHT22;11392;57.390;-2.468;2022-08-18T11:58:41;20.60;99.90
22450;DHT22;11392;57.390;-2.468;2022-08-18T12:07:00;21.60;99.90
22450;DHT22;11392;57.390;-2.468;2022-08-18T12:12:47;21.70;99.90
22450;DHT22;11392;57.390;-2.468;2022-08-18T12:15:35;21.70;99.90
22450;DHT22;11392;57.390;-2.468;2022-08-18T12:18:16;21.80;99.90
22450;DHT22;11392;57.390;-2.468;2022-08-18T12:20:55;21.90;99.90
22450;DHT22;11392;57.390;-2.468;2022-08-18T12:23:23;21.80;99.90
22450;DHT22;11392;57.390;-2.468;2022-08-18T12:25:50;21.90;99.90
22450;DHT22;11392;57.390;-2.468;2022-08-18T12:28:21;22.00;99.90
22450;DHT22;11392;57.390;-2.468;2022-08-18T12:30:54;22.10;99.90
22450;DHT22;11392;57.390;-2.468;2022-08-18T12:33:23;21.90;99.90
22450;DHT22;11392;57.390;-2.468;2022-08-18T12:36:01;21.40;99.90
22450;DHT22;11392;57.390;-2.468;2022-08-18T12:38:31;21.10;99.90
22450;DHT22;11392;57.390;-2.468;2022-08-18T12:41:02;20.80;99.90
22450;DHT22;11392;57.390;-2.468;2022-08-18T12:43:30;20.40;99.90
22450;DHT22;11392;57.390;-2.468;2022-08-18T12:45:59;20.00;99.90
22450;DHT22;11392;57.390;-2.468;2022-08-18T12:48:29;19.90;99.90
22450;DHT22;11392;57.390;-2.468;2022-08-18T12:50:57;19.40;99.90
22450;DHT22;11392;57.390;-2.468;2022-08-18T12:53:27;19.10;99.90
22450;DHT22;11392;57.390;-2.468;2022-08-18T12:56:24;18.80;99.90
22450;DHT22;11392;57.390;-2.468;2022-08-18T12:58:52;18.70;99.90
22450;DHT22;11392;57.390;-2.468;2022-08-18T13:01:19;18.60;99.90
22450;DHT22;11392;57.390;-2.468;2022-08-18T13:03:50;18.50;99.90
22450;DHT22;11392;57.390;-2.468;2022-08-18T13:06:43;18.40;99.90
22450;DHT22;11392;57.390;-2.468;2022-08-18T13:09:25;18.30;99.90
22450;DHT22;11392;57.390;-2.468;2022-08-18T13:12:12;18.30;99.90
22450;DHT22;11392;57.390;-2.468;2022-08-18T13:14:42;18.20;99.90
22450;DHT22;11392;57.390;-2.468;2022-08-18T13:17:11;18.10;99.90
22450;DHT22;11392;57.390;-2.468;2022-08-18T13:19:58;18.10;99.90
22450;DHT22;11392;57.390;-2.468;2022-08-18T13:22:26;18.00;99.90
22450;DHT22;11392;57.390;-2.468;2022-08-18T13:25:01;17.90;99.90
22450;DHT22;11392;57.390;-2.468;2022-08-18T13:27:31;17.80;99.90
22450;DHT22;11392;57.390;-2.468;2022-08-18T13:30:08;17.80;99.90
22450;DHT22;11392;57.390;-2.468;2022-08-18T13:32:55;17.80;99.90
22450;DHT22;11392;57.390;-2.468;2022-08-18T13:35:30;17.70;99.90
22450;DHT22;11392;57.390;-2.468;2022-08-18T13:38:11;17.70;99.90
22450;DHT22;11392;57.390;-2.468;2022-08-18T13:40:46;17.70;99.90
22450;DHT22;11392;57.390;-2.468;2022-08-18T13:43:29;17.70;99.90
22450;DHT22;11392;57.390;-2.468;2022-08-18T13:45:57;17.70;99.90
22450;DHT22;11392;57.390;-2.468;2022-08-18T13:48:26;17.70;99.90
22450;DHT22;11392;57.390;-2.468;2022-08-18T13:50:55;17.70;99.90
22450;DHT22;11392;57.390;-2.468;2022-08-18T13:53:27;17.80;99.90
22450;DHT22;11392;57.390;-2.468;2022-08-18T13:55:57;17.80;99.90
22450;DHT22;11392;57.390;-2.468;2022-08-18T13:58:26;17.70;99.90
22450;DHT22;11392;57.390;-2.468;2022-08-18T14:01:12;17.60;99.90
22450;DHT22;11392;57.390;-2.468;2022-08-18T14:03:59;17.60;99.90
22450;DHT22;11392;57.390;-2.468;2022-08-18T14:06:27;17.60;99.90
22450;DHT22;11392;57.390;-2.468;2022-08-18T14:08:54;17.60;99.90
22450;DHT22;11392;57.390;-2.468;2022-08-18T14:11:26;17.60;99.90
22450;DHT22;11392;57.390;-2.468;2022-08-18T14:13:59;17.60;99.90
22450;DHT22;11392;57.390;-2.468;2022-08-18T14:16:27;17.50;99.90
22450;DHT22;11392;57.390;-2.468;2022-08-18T14:18:56;17.50;99.90
22450;DHT22;11392;57.390;-2.468;2022-08-18T14:21:46;17.40;99.90
22450;DHT22;11392;57.390;-2.468;2022-08-18T14:24:38;17.50;99.90
22450;DHT22;11392;57.390;-2.468;2022-08-18T14:27:27;17.50;99.90
22450;DHT22;11392;57.390;-2.468;2022-08-18T14:30:09;17.60;99.90
22450;DHT22;11392;57.390;-2.468;2022-08-18T14:32:40;17.90;99.90
22450;DHT22;11392;57.390;-2.468;2022-08-18T14:35:15;18.40;99.90
22450;DHT22;11392;57.390;-2.468;2022-08-18T14:38:02;19.10;99.90
22450;DHT22;11392;57.390;-2.468;2022-08-18T14:40:31;19.60;99.90
22450;DHT22;11392;57.390;-2.468;2022-08-18T14:42:59;20.00;99.90
22450;DHT22;11392;57.390;-2.468;2022-08-18T14:45:32;20.10;99.90
22450;DHT22;11392;57.390;-2.468;2022-08-18T14:48:03;20.10;99.90
22450;DHT22;11392;57.390;-2.468;2022-08-18T14:50:37;20.10;99.90
22450;DHT22;11392;57.390;-2.468;2022-08-18T14:53:05;20.30;99.90
22450;DHT22;11392;57.390;-2.468;2022-08-18T14:55:33;20.30;99.90
22450;DHT22;11392;57.390;-2.468;2022-08-18T14:58:02;20.60;99.90
22450;DHT22;11392;57.390;-2.468;2022-08-18T15:00:32;20.60;99.90
22450;DHT22;11392;57.390;-2.468;2022-08-18T15:03:15;20.70;99.90
22450;DHT22;11392;57.390;-2.468;2022-08-18T15:05:42;20.50;99.90
22450;DHT22;11392;57.390;-2.468;2022-08-18T15:08:09;20.60;99.90
22450;DHT22;11392;57.390;-2.468;2022-08-18T15:10:39;20.50;99.90
22450;DHT22;11392;57.390;-2.468;2022-08-18T15:13:05;20.70;99.90
22450;DHT22;11392;57.390;-2.468;2022-08-18T15:15:34;21.00;99.90
22450;DHT22;11392;57.390;-2.468;2022-08-18T15:18:17;21.00;99.90
22450;DHT22;11392;57.390;-2.468;2022-08-18T15:20:49;20.80;99.90
22450;DHT22;11392;57.390;-2.468;2022-08-18T15:23:45;20.60;99.90
22450;DHT22;11392;57.390;-2.468;2022-08-18T15:26:46;20.40;99.90
22450;DHT22;11392;57.390;-2.468;2022-08-18T15:29:17;20.40;99.90
22450;DHT22;11392;57.390;-2.468;2022-08-18T15:31:48;20.30;99.90
22450;DHT22;11392;57.390;-2.468;2022-08-18T15:34:17;20.20;99.90
22450;DHT22;11392;57.390;-2.468;2022-08-18T15:36:46;20.30;99.90
22450;DHT22;11392;57.390;-2.468;2022-08-18T15:39:15;20.20;99.90
22450;DHT22;11392;57.390;-2.468;2022-08-18T15:41:44;20.00;99.90
22450;DHT22;11392;57.390;-2.468;2022-08-18T15:44:19;19.80;99.90
22450;DHT22;11392;57.390;-2.468;2022-08-18T15:46:46;19.70;99.90
22450;DHT22;11392;57.390;-2.468;2022-08-18T15:49:19;19.70;99.90
22450;DHT22;11392;57.390;-2.468;2022-08-18T15:51:48;20.00;99.90
22450;DHT22;11392;57.390;-2.468;2022-08-18T15:54:18;20.20;99.90
22450;DHT22;11392;57.390;-2.468;2022-08-18T15:56:46;20.20;99.90
22450;DHT22;11392;57.390;-2.468;2022-08-18T15:59:25;20.20;99.90
22450;DHT22;11392;57.390;-2.468;2022-08-18T16:02:06;20.10;99.90
22450;DHT22;11392;57.390;-2.468;2022-08-18T16:04:38;20.20;99.90
22450;DHT22;11392;57.390;-2.468;2022-08-18T16:07:08;20.10;99.90
22450;DHT22;11392;57.390;-2.468;2022-08-18T16:09:36;19.90;99.90
22450;DHT22;11392;57.390;-2.468;2022-08-18T16:12:03;19.70;99.90
22450;DHT22;11392;57.390;-2.468;2022-08-18T16:14:30;19.60;99.90
22450;DHT22;11392;57.390;-2.468;2022-08-18T16:16:57;19.40;99.90
22450;DHT22;11392;57.390;-2.468;2022-08-18T16:19:27;19.40;99.90
22450;DHT22;11392;57.390;-2.468;2022-08-18T16:21:57;19.30;99.90
22450;DHT22;11392;57.390;-2.468;2022-08-18T16:24:24;19.30;99.90
22450;DHT22;11392;57.390;-2.468;2022-08-18T16:26:51;19.40;99.90
22450;DHT22;11392;57.390;-2.468;2022-08-18T16:29:18;19.40;99.90
22450;DHT22;11392;57.390;-2.468;2022-08-18T16:31:45;19.60;99.90
22450;DHT22;11392;57.390;-2.468;2022-08-18T16:34:12;20.00;99.90
22450;DHT22;11392;57.390;-2.468;2022-08-18T16:36:39;20.30;99.90
22450;DHT22;11392;57.390;-2.468;2022-08-18T16:39:06;20.40;99.90
22450;DHT22;11392;57.390;-2.468;2022-08-18T16:41:34;20.50;99.90
22450;DHT22;11392;57.390;-2.468;2022-08-18T16:44:01;20.50;99.90
22450;DHT22;11392;57.390;-2.468;2022-08-18T16:46:28;20.50;99.90
22450;DHT22;11392;57.390;-2.468;2022-08-18T16:48:57;20.50;99.90
22450;DHT22;11392;57.390;-2.468;2022-08-18T16:51:26;20.50;99.90
22450;DHT22;11392;57.390;-2.468;2022-08-18T16:53:54;20.40;99.90
22450;DHT22;11392;57.390;-2.468;2022-08-18T16:56:24;20.30;99.90
22450;DHT22;11392;57.390;-2.468;2022-08-18T16:58:51;20.30;99.90
22450;DHT22;11392;57.390;-2.468;2022-08-18T17:01:37;20.20;99.90
22450;DHT22;11392;57.390;-2.468;2022-08-18T17:04:25;20.20;99.90
22450;DHT22;11392;57.390;-2.468;2022-08-18T17:06:55;20.10;99.90
22450;DHT22;11392;57.390;-2.468;2022-08-18T17:09:23;20.10;99.90
22450;DHT22;11392;57.390;-2.468;2022-08-18T17:11:51;20.10;99.90
22450;DHT22;11392;57.390;-2.468;2022-08-18T17:14:20;20.10;99.90
22450;DHT22;11392;57.390;-2.468;2022-08-18T17:16:49;20.10;99.90
22450;DHT22;11392;57.390;-2.468;2022-08-18T17:19:21;19.90;99.90
22450;DHT22;11392;57.390;-2.468;2022-08-18T17:21:49;19.80;99.90
22450;DHT22;11392;57.390;-2.468;2022-08-18T17:24:16;19.70;99.90
22450;DHT22;11392;57.390;-2.468;2022-08-18T17:27:05;19.70;99.90
22450;DHT22;11392;57.390;-2.468;2022-08-18T17:30:04;19.60;99.90
22450;DHT22;11392;57.390;-2.468;2022-08-18T17:35:30;19.80;99.90
22450;DHT22;11392;57.390;-2.468;2022-08-18T17:38:09;19.90;99.90
22450;DHT22;11392;57.390;-2.468;2022-08-18T17:40:54;19.90;99.90
22450;DHT22;11392;57.390;-2.468;2022-08-18T17:43:24;19.90;99.90
22450;DHT22;11392;57.390;-2.468;2022-08-18T17:45:56;19.90;99.90
22450;DHT22;11392;57.390;-2.468;2022-08-18T17:48:36;19.90;99.90
22450;DHT22;11392;57.390;-2.468;2022-08-18T17:51:24;19.90;99.90
22450;DHT22;11392;57.390;-2.468;2022-08-18T17:54:32;19.80;99.90
22450;DHT22;11392;57.390;-2.468;2022-08-18T17:57:11;19.70;99.90
22450;DHT22;11392;57.390;-2.468;2022-08-18T18:00:03;19.70;99.90
22450;DHT22;11392;57.390;-2.468;2022-08-18T18:02:39;19.60;99.90
22450;DHT22;11392;57.390;-2.468;2022-08-18T18:05:09;19.50;99.90
22450;DHT22;11392;57.390;-2.468;2022-08-18T18:10:40;19.30;99.90
22450;DHT22;11392;57.390;-2.468;2022-08-18T18:13:31;19.10;99.90
22450;DHT22;11392;57.390;-2.468;2022-08-18T18:16:02;19.10;99.90
22450;DHT22;11392;57.390;-2.468;2022-08-18T18:18:45;19.00;99.90
22450;DHT22;11392;57.390;-2.468;2022-08-18T18:23:48;18.90;99.90
22450;DHT22;11392;57.390;-2.468;2022-08-18T18:34:25;18.80;99.90
22450;DHT22;11392;57.390;-2.468;2022-08-18T18:36:55;18.70;99.90
22450;DHT22;11392;57.390;-2.468;2022-08-18T18:39:31;18.70;99.90
22450;DHT22;11392;57.390;-2.468;2022-08-18T18:42:16;18.70;99.90
22450;DHT22;11392;57.390;-2.468;2022-08-18T18:45:01;18.60;99.90
22450;DHT22;11392;57.390;-2.468;2022-08-18T18:50:14;18.60;99.90
22450;DHT22;11392;57.390;-2.468;2022-08-18T18:52:59;18.50;99.90
22450;DHT22;11392;57.390;-2.468;2022-08-18T18:55:33;18.50;99.90
22450;DHT22;11392;57.390;-2.468;2022-08-18T19:00:55;18.40;99.90
22450;DHT22;11392;57.390;-2.468;2022-08-18T19:14:17;18.10;99.90
22450;DHT22;11392;57.390;-2.468;2022-08-18T19:16:53;18.00;99.90
22450;DHT22;11392;57.390;-2.468;2022-08-18T19:19:46;17.90;99.90
22450;DHT22;11392;57.390;-2.468;2022-08-18T19:25:07;17.80;99.90